Parker Lake, Missouri
Current Conditions -  °F | °C
As of 5:15 PM on Wednesday 26 Nov 2014 (Local Time) from KFAM Reporting Station
Broken Clouds Broken Clouds  
Wind Chill: 30°   Ceiling: 3900
Heat Index: 34°   Visibility: 8mi
Dew Point: 32°   Wind: 5mph
Humidity: 93%   Direction: 260°W
Pressure: 30.02"   Gusts: NA
Location:  37.7127°N, 89.8903°W
Report Text: KFAM 262315Z AUTO 26004KT 8SM FEW016 SCT026 BKN039 01/00 A3002 RMK AO1
Loading
Personal Weather Stations






























Interactive Weather Map New forecast layout! Learn more

10-Day Weather Forecast

Advertisements
Track Severe Weather on mobile